Time;durP1;ratioP1;P1;durP2;ratioP2;P2;SDS_P1;SDS_P2;PMS_P1;PMS_P2;Temp;Humidity;BMP_temperature;BMP_pressure;BME280_temperature;BME280_humidity;BME280_pressure;Samples;Min_cycle;Max_cycle;Signal;HPM_P1;HPM_P2
2022/03/27 00:01:27;;;;;;;11.40;7.68;;;;;;;;;;4987741;28;20040;-76
2022/03/27 00:03:52;;;;;;;10.70;7.57;;;;;;;;;;5022577;28;20084;-76
2022/03/27 00:06:20;;;;;;;11.77;8.05;;;;;;;;;;5023092;28;20265;-76
2022/03/27 00:08:45;;;;;;;11.57;7.88;;;;;;;;;;5022663;28;20044;-76
2022/03/27 00:11:28;;;;;;;13.68;8.25;;;;;;;;;;5022127;28;20066;-78
2022/03/27 00:13:58;;;;;;;14.88;9.35;;;;;;;;;;5021343;28;20075;-77
2022/03/27 00:16:23;;;;;;;13.80;9.18;;;;;;;;;;5020076;28;20029;-77
2022/03/27 00:18:50;;;;;;;15.60;9.57;;;;;;;;;;5022064;28;20041;-76
2022/03/27 00:21:19;;;;;;;12.75;8.80;;;;;;;;;;5020382;28;20028;-77
2022/03/27 00:23:44;;;;;;;11.50;9.15;;;;;;;;;;5002329;28;20052;-77
2022/03/27 00:26:12;;;;;;;13.40;9.00;;;;;;;;;;5022726;28;20037;-77
2022/03/27 00:28:37;;;;;;;11.60;8.35;;;;;;;;;;5020372;28;20052;-77
2022/03/27 00:31:04;;;;;;;11.02;7.78;;;;;;;;;;5003127;28;20029;-77
2022/03/27 00:33:30;;;;;;;12.00;8.40;;;;;;;;;;5006299;28;20136;-76
2022/03/27 00:35:56;;;;;;;12.35;9.25;;;;;;;;;;5021047;28;20036;-76
2022/03/27 00:38:25;;;;;;;12.98;9.48;;;;;;;;;;5021203;28;20105;-76
2022/03/27 00:40:51;;;;;;;12.45;8.60;;;;;;;;;;5003718;28;20033;-76
2022/03/27 00:43:17;;;;;;;13.50;9.45;;;;;;;;;;5008805;28;20489;-76
2022/03/27 00:45:43;;;;;;;13.80;9.50;;;;;;;;;;5019504;28;20021;-77
2022/03/27 00:48:09;;;;;;;13.32;9.38;;;;;;;;;;5022189;28;20563;-77
2022/03/27 00:50:35;;;;;;;13.27;9.50;;;;;;;;;;5019620;28;20554;-77
2022/03/27 00:53:00;;;;;;;15.10;10.35;;;;;;;;;;5003012;28;20037;-76
2022/03/27 00:55:26;;;;;;;14.07;9.60;;;;;;;;;;5021561;28;20044;-76
2022/03/27 00:57:55;;;;;;;12.10;8.98;;;;;;;;;;5023737;28;20105;-76
2022/03/27 01:00:47;;;;;;;14.60;10.32;;;;;;;;;;5020922;28;20581;-76
2022/03/27 01:03:20;;;;;;;13.00;9.57;;;;;;;;;;4986863;28;20040;-76
2022/03/27 01:05:48;;;;;;;13.68;9.05;;;;;;;;;;5021636;28;20261;-76
2022/03/27 01:08:14;;;;;;;13.02;8.63;;;;;;;;;;5018738;28;20037;-77
2022/03/27 01:10:40;;;;;;;11.73;8.25;;;;;;;;;;5019824;28;20056;-76
2022/03/27 01:13:16;;;;;;;12.15;8.38;;;;;;;;;;5020582;28;20139;-76
2022/03/27 01:15:43;;;;;;;11.32;8.23;;;;;;;;;;5020157;28;20044;-77
2022/03/27 01:18:09;;;;;;;12.43;9.02;;;;;;;;;;5020519;28;20128;-76
2022/03/27 01:20:35;;;;;;;13.45;9.65;;;;;;;;;;5022240;28;20067;-76
2022/03/27 01:23:07;;;;;;;13.95;9.52;;;;;;;;;;5023555;28;20144;-76
2022/03/27 01:25:33;;;;;;;13.55;8.82;;;;;;;;;;5024138;28;20110;-76
2022/03/27 01:28:01;;;;;;;13.00;8.77;;;;;;;;;;5027105;28;20067;-76
2022/03/27 01:30:27;;;;;;;18.38;9.02;;;;;;;;;;5023469;28;20079;-76
2022/03/27 01:32:55;;;;;;;23.75;8.65;;;;;;;;;;5022887;28;20062;-76
2022/03/27 01:35:26;;;;;;;13.00;8.57;;;;;;;;;;5020529;28;20066;-76
2022/03/27 01:37:53;;;;;;;12.65;8.82;;;;;;;;;;5023499;28;20771;-75
2022/03/27 01:40:21;;;;;;;13.98;8.95;;;;;;;;;;5003921;28;20428;-76
2022/03/27 01:42:48;;;;;;;12.23;7.88;;;;;;;;;;5023116;28;20013;-77
2022/03/27 01:45:13;;;;;;;11.88;7.70;;;;;;;;;;5020161;28;20028;-76
2022/03/27 01:47:43;;;;;;;13.93;8.80;;;;;;;;;;5021863;28;20079;-76
2022/03/27 01:50:09;;;;;;;13.18;8.98;;;;;;;;;;5002583;28;20043;-76
2022/03/27 01:52:35;;;;;;;13.45;9.10;;;;;;;;;;5021273;28;20048;-76
2022/03/27 01:55:06;;;;;;;14.40;9.85;;;;;;;;;;5020836;28;20136;-76
2022/03/27 01:57:31;;;;;;;14.82;9.75;;;;;;;;;;5008716;28;20102;-76
2022/03/27 01:59:56;;;;;;;12.75;8.60;;;;;;;;;;5019307;28;20029;-76
2022/03/27 02:02:24;;;;;;;11.57;7.75;;;;;;;;;;5022361;28;20021;-76
2022/03/27 02:04:53;;;;;;;13.40;8.18;;;;;;;;;;5002943;28;20107;-77
2022/03/27 02:07:22;;;;;;;12.25;8.18;;;;;;;;;;5021281;28;20611;-76
2022/03/27 02:09:49;;;;;;;15.23;9.13;;;;;;;;;;5020364;28;20029;-77
2022/03/27 02:12:14;;;;;;;14.60;9.23;;;;;;;;;;5019812;28;20072;-76
2022/03/27 02:14:39;;;;;;;15.05;9.40;;;;;;;;;;5020592;28;20141;-77
2022/03/27 02:17:05;;;;;;;15.00;9.63;;;;;;;;;;5019843;28;20111;-77
2022/03/27 02:19:31;;;;;;;16.35;9.02;;;;;;;;;;5020931;28;20393;-78
2022/03/27 02:21:58;;;;;;;14.65;9.73;;;;;;;;;;5015029;28;20523;-76
2022/03/27 02:24:25;;;;;;;14.98;9.68;;;;;;;;;;5026418;28;20029;-76
2022/03/27 02:26:51;;;;;;;19.83;9.27;;;;;;;;;;5027060;28;20025;-76
2022/03/27 02:29:16;;;;;;;13.57;8.38;;;;;;;;;;5008214;28;20037;-77
2022/03/27 02:31:43;;;;;;;13.38;8.32;;;;;;;;;;5027024;28;20036;-76
2022/03/27 02:34:11;;;;;;;15.25;9.75;;;;;;;;;;5014020;28;20037;-77
2022/03/27 02:36:37;;;;;;;17.85;10.30;;;;;;;;;;5025254;28;20080;-77
2022/03/27 02:39:05;;;;;;;18.15;10.93;;;;;;;;;;4992193;28;20041;-76
2022/03/27 02:41:30;;;;;;;15.10;8.70;;;;;;;;;;5026276;28;20028;-76
2022/03/27 02:43:56;;;;;;;14.30;8.88;;;;;;;;;;5026333;28;20106;-77
2022/03/27 02:46:21;;;;;;;15.43;9.25;;;;;;;;;;5026404;28;20029;-77
2022/03/27 02:48:49;;;;;;;15.95;9.48;;;;;;;;;;5024573;28;20159;-77
2022/03/27 02:51:14;;;;;;;16.30;9.60;;;;;;;;;;5026738;28;20380;-76
2022/03/27 02:53:40;;;;;;;15.63;9.00;;;;;;;;;;5025414;28;20032;-77
2022/03/27 02:56:08;;;;;;;16.15;9.35;;;;;;;;;;5007865;28;20099;-78
2022/03/27 02:58:36;;;;;;;15.23;9.45;;;;;;;;;;5026329;28;20040;-78
2022/03/27 03:01:02;;;;;;;18.20;10.57;;;;;;;;;;5006698;28;20156;-78
2022/03/27 03:03:27;;;;;;;20.10;11.43;;;;;;;;;;5013935;28;20384;-78
2022/03/27 03:05:54;;;;;;;19.90;10.68;;;;;;;;;;4992095;28;20028;-77
2022/03/27 03:08:26;;;;;;;21.10;10.95;;;;;;;;;;5024677;28;20057;-77
2022/03/27 03:10:52;;;;;;;19.05;11.02;;;;;;;;;;5026195;28;20060;-77
2022/03/27 03:13:17;;;;;;;20.33;11.38;;;;;;;;;;5028643;28;20037;-76
2022/03/27 03:15:45;;;;;;;21.27;11.88;;;;;;;;;;5026701;28;20290;-76
2022/03/27 03:18:12;;;;;;;25.63;12.02;;;;;;;;;;5025620;28;20040;-77
2022/03/27 03:20:40;;;;;;;22.20;12.10;;;;;;;;;;5026603;28;20033;-77
2022/03/27 03:23:05;;;;;;;20.52;11.18;;;;;;;;;;5026490;28;20029;-77
2022/03/27 03:25:33;;;;;;;22.13;11.30;;;;;;;;;;5023683;28;20119;-76
2022/03/27 03:27:58;;;;;;;20.10;10.80;;;;;;;;;;5025355;28;20035;-76
2022/03/27 03:30:23;;;;;;;20.38;11.57;;;;;;;;;;5027303;28;20040;-76
2022/03/27 03:32:51;;;;;;;20.13;11.38;;;;;;;;;;5005679;28;20243;-76
2022/03/27 03:35:17;;;;;;;19.65;11.50;;;;;;;;;;5022872;28;20430;-70
2022/03/27 03:37:45;;;;;;;21.00;11.00;;;;;;;;;;5006516;28;20497;-71
2022/03/27 03:40:10;;;;;;;17.05;10.52;;;;;;;;;;5004886;28;20075;-70
2022/03/27 03:42:38;;;;;;;19.83;11.10;;;;;;;;;;5022047;28;20707;-72
2022/03/27 03:45:04;;;;;;;19.15;10.52;;;;;;;;;;5009268;28;20044;-71
2022/03/27 03:47:32;;;;;;;21.92;11.75;;;;;;;;;;5005070;28;20037;-71
2022/03/27 03:49:57;;;;;;;22.30;12.30;;;;;;;;;;5022627;28;20052;-71
2022/03/27 03:52:28;;;;;;;22.88;12.48;;;;;;;;;;5023720;28;20037;-70
2022/03/27 03:54:53;;;;;;;22.38;12.38;;;;;;;;;;5006716;28;20127;-70
2022/03/27 03:57:21;;;;;;;19.45;11.82;;;;;;;;;;5008128;28;20419;-71
2022/03/27 03:59:49;;;;;;;17.55;10.68;;;;;;;;;;5023693;28;20044;-72
2022/03/27 04:02:18;;;;;;;18.05;10.02;;;;;;;;;;5022341;28;20064;-71
2022/03/27 04:04:44;;;;;;;17.45;9.70;;;;;;;;;;5023222;28;20693;-71
2022/03/27 04:07:09;;;;;;;17.27;10.75;;;;;;;;;;5024709;28;20044;-71
2022/03/27 04:09:34;;;;;;;17.42;10.18;;;;;;;;;;5003275;28;20048;-71
2022/03/27 04:12:02;;;;;;;16.45;9.63;;;;;;;;;;5022269;28;20053;-71
2022/03/27 04:14:34;;;;;;;16.60;9.93;;;;;;;;;;5021755;28;20068;-70
2022/03/27 04:17:00;;;;;;;16.30;10.02;;;;;;;;;;5023461;28;20037;-71
2022/03/27 04:19:25;;;;;;;17.13;9.95;;;;;;;;;;5004660;28;20396;-71
2022/03/27 04:21:51;;;;;;;17.05;10.23;;;;;;;;;;5008020;28;20064;-70
2022/03/27 04:24:16;;;;;;;18.45;10.35;;;;;;;;;;5004921;28;20030;-70
2022/03/27 04:26:44;;;;;;;16.73;9.88;;;;;;;;;;5023128;28;20032;-70
2022/03/27 04:29:11;;;;;;;16.85;10.02;;;;;;;;;;5023778;28;20656;-70
2022/03/27 04:31:41;;;;;;;16.25;10.23;;;;;;;;;;5021137;28;20025;-70
2022/03/27 04:34:08;;;;;;;14.98;9.00;;;;;;;;;;5020239;28;20029;-70
2022/03/27 04:36:38;;;;;;;16.58;8.88;;;;;;;;;;5004255;28;20104;-70
2022/03/27 04:39:04;;;;;;;15.07;9.85;;;;;;;;;;5022813;28;20047;-70
2022/03/27 04:41:32;;;;;;;15.73;9.27;;;;;;;;;;5021344;28;20037;-70
2022/03/27 04:43:57;;;;;;;15.38;9.50;;;;;;;;;;5004110;28;20136;-70
2022/03/27 04:46:23;;;;;;;17.10;9.95;;;;;;;;;;5005868;28;20778;-70
2022/03/27 04:48:48;;;;;;;16.92;10.13;;;;;;;;;;5022434;28;20048;-71
2022/03/27 04:51:14;;;;;;;18.48;10.40;;;;;;;;;;5004859;28;20033;-71
2022/03/27 04:53:40;;;;;;;17.65;10.57;;;;;;;;;;5021904;28;20115;-71
2022/03/27 04:56:05;;;;;;;17.85;11.30;;;;;;;;;;5004956;28;20101;-70
2022/03/27 04:58:34;;;;;;;20.40;11.40;;;;;;;;;;5023806;28;20997;-70
2022/03/27 05:00:59;;;;;;;20.10;11.85;;;;;;;;;;5022034;28;20135;-70
2022/03/27 05:03:27;;;;;;;16.48;10.75;;;;;;;;;;5003874;28;20033;-71
2022/03/27 05:05:54;;;;;;;20.05;11.18;;;;;;;;;;5022957;28;20508;-70
2022/03/27 05:08:20;;;;;;;21.77;10.82;;;;;;;;;;5023194;28;20417;-71
2022/03/27 05:10:46;;;;;;;20.85;11.60;;;;;;;;;;5020791;28;20194;-70
2022/03/27 05:13:14;;;;;;;19.23;11.48;;;;;;;;;;5023599;28;20070;-71
2022/03/27 05:15:42;;;;;;;20.17;11.30;;;;;;;;;;5018934;28;20094;-70
2022/03/27 05:18:08;;;;;;;20.48;12.13;;;;;;;;;;5022881;28;20082;-70
2022/03/27 05:20:37;;;;;;;19.80;11.27;;;;;;;;;;5008532;28;20561;-71
2022/03/27 05:23:02;;;;;;;21.02;11.45;;;;;;;;;;5019425;28;20822;-70
2022/03/27 05:25:31;;;;;;;19.13;10.63;;;;;;;;;;5022620;28;20030;-70
2022/03/27 05:27:58;;;;;;;20.05;11.70;;;;;;;;;;5022306;28;20132;-70
2022/03/27 05:30:24;;;;;;;22.73;12.48;;;;;;;;;;5021212;28;20114;-70
2022/03/27 05:32:53;;;;;;;20.88;12.10;;;;;;;;;;5020576;28;20037;-70
2022/03/27 05:35:21;;;;;;;24.08;12.38;;;;;;;;;;5007300;28;20045;-70
2022/03/27 05:37:47;;;;;;;21.00;12.27;;;;;;;;;;4986710;28;20075;-70
2022/03/27 05:40:18;;;;;;;22.27;12.18;;;;;;;;;;5001597;28;20033;-71
2022/03/27 05:42:43;;;;;;;23.75;12.52;;;;;;;;;;5018420;28;20276;-72
2022/03/27 05:45:10;;;;;;;22.02;12.75;;;;;;;;;;4990994;28;20455;-71
2022/03/27 05:47:37;;;;;;;21.05;13.05;;;;;;;;;;5019090;28;20075;-70
2022/03/27 05:50:03;;;;;;;26.13;12.90;;;;;;;;;;5020384;28;20041;-71
2022/03/27 05:52:36;;;;;;;24.75;13.18;;;;;;;;;;5019816;28;20033;-70
2022/03/27 05:55:01;;;;;;;25.88;13.60;;;;;;;;;;5018948;28;20673;-70
2022/03/27 05:57:29;;;;;;;26.17;13.02;;;;;;;;;;5002509;28;20841;-70
2022/03/27 05:59:57;;;;;;;23.25;12.65;;;;;;;;;;5017605;28;20443;-69
2022/03/27 06:02:23;;;;;;;22.83;12.70;;;;;;;;;;5019832;28;20085;-70
2022/03/27 06:04:48;;;;;;;21.92;11.15;;;;;;;;;;4987001;28;20029;-70
2022/03/27 06:07:14;;;;;;;23.85;12.60;;;;;;;;;;5001988;28;20498;-70
2022/03/27 06:09:41;;;;;;;26.33;12.35;;;;;;;;;;5020917;28;20075;-70
2022/03/27 06:12:10;;;;;;;23.00;11.77;;;;;;;;;;5018260;28;20053;-70
2022/03/27 06:14:35;;;;;;;24.58;12.65;;;;;;;;;;5006050;28;20100;-70
2022/03/27 06:17:03;;;;;;;26.05;12.23;;;;;;;;;;4999930;28;20373;-71
2022/03/27 06:19:30;;;;;;;28.42;11.70;;;;;;;;;;5018574;28;20028;-71
2022/03/27 06:21:56;;;;;;;22.67;12.05;;;;;;;;;;4999085;28;20036;-71
2022/03/27 06:24:21;;;;;;;26.00;12.25;;;;;;;;;;4985848;28;20017;-71
2022/03/27 06:26:49;;;;;;;26.13;11.88;;;;;;;;;;5002013;28;20036;-71
2022/03/27 06:29:17;;;;;;;22.50;11.68;;;;;;;;;;5004161;28;20132;-71
2022/03/27 06:31:45;;;;;;;26.98;12.98;;;;;;;;;;5019703;28;20201;-70
2022/03/27 06:34:10;;;;;;;28.00;11.57;;;;;;;;;;5019531;28;20040;-70
2022/03/27 06:36:36;;;;;;;25.48;12.38;;;;;;;;;;5004581;28;20214;-71
2022/03/27 06:39:05;;;;;;;23.70;12.15;;;;;;;;;;5000837;28;20408;-72
2022/03/27 06:41:33;;;;;;;26.00;12.02;;;;;;;;;;5000601;28;20457;-71
2022/03/27 06:43:58;;;;;;;28.65;11.65;;;;;;;;;;4983574;28;20021;-70
2022/03/27 06:46:24;;;;;;;28.85;12.13;;;;;;;;;;4999298;28;20060;-71
2022/03/27 06:48:50;;;;;;;29.80;12.90;;;;;;;;;;5018881;28;20063;-70
2022/03/27 06:51:16;;;;;;;24.08;12.00;;;;;;;;;;5018494;28;20495;-70
2022/03/27 06:53:44;;;;;;;24.08;12.50;;;;;;;;;;5018749;28;20330;-71
2022/03/27 06:56:10;;;;;;;25.52;11.27;;;;;;;;;;5016362;28;22021;-70
2022/03/27 06:58:36;;;;;;;26.33;11.95;;;;;;;;;;4996341;28;20041;-71
2022/03/27 07:03:47;;;;;;;21.30;11.00;;;;;;;;;;5012015;28;20040;-72
2022/03/27 07:06:16;;;;;;;29.40;12.02;;;;;;;;;;5012069;28;20072;-70
2022/03/27 07:08:45;;;;;;;25.55;11.05;;;;;;;;;;5014669;28;20455;-70
2022/03/27 07:11:14;;;;;;;21.88;11.25;;;;;;;;;;5015617;28;20513;-70
2022/03/27 07:13:44;;;;;;;21.47;10.93;;;;;;;;;;5016764;28;20668;-70
2022/03/27 07:16:13;;;;;;;23.33;10.52;;;;;;;;;;4998406;28;20048;-70
2022/03/27 07:18:38;;;;;;;25.70;9.88;;;;;;;;;;4998741;28;20037;-70
2022/03/27 07:21:06;;;;;;;18.75;10.95;;;;;;;;;;5017258;28;20032;-70
2022/03/27 07:23:31;;;;;;;15.70;8.48;;;;;;;;;;5019710;28;20040;-70
2022/03/27 07:25:57;;;;;;;18.58;8.27;;;;;;;;;;5023134;28;20047;-70
2022/03/27 07:28:24;;;;;;;17.60;8.30;;;;;;;;;;5021564;28;20041;-70
2022/03/27 07:30:52;;;;;;;14.77;7.55;;;;;;;;;;5020425;28;20052;-71
2022/03/27 07:33:21;;;;;;;18.33;8.30;;;;;;;;;;5023276;28;20036;-69
2022/03/27 07:35:46;;;;;;;18.75;7.57;;;;;;;;;;5021979;28;20044;-70
2022/03/27 07:38:12;;;;;;;20.63;8.20;;;;;;;;;;5005038;28;20037;-70
2022/03/27 07:40:38;;;;;;;17.70;7.43;;;;;;;;;;5005106;28;20031;-70
2022/03/27 07:43:03;;;;;;;13.30;6.03;;;;;;;;;;5016921;28;20222;-70
2022/03/27 07:45:29;;;;;;;16.83;6.78;;;;;;;;;;5015772;28;20103;-70
2022/03/27 07:47:58;;;;;;;13.60;5.80;;;;;;;;;;5014899;28;20032;-70
2022/03/27 07:50:24;;;;;;;17.17;9.07;;;;;;;;;;5015921;28;20110;-71
2022/03/27 07:52:50;;;;;;;17.40;8.95;;;;;;;;;;4996795;28;20103;-70
2022/03/27 07:55:16;;;;;;;18.08;8.23;;;;;;;;;;5015337;28;20249;-71
2022/03/27 07:57:42;;;;;;;15.90;8.02;;;;;;;;;;5013970;28;20040;-71
2022/03/27 08:00:11;;;;;;;17.15;6.70;;;;;;;;;;5015256;28;20528;-71
2022/03/27 08:02:37;;;;;;;15.32;6.50;;;;;;;;;;5013237;28;20116;-71
2022/03/27 08:05:06;;;;;;;14.45;6.13;;;;;;;;;;5015145;28;20120;-71
2022/03/27 08:07:32;;;;;;;15.80;6.47;;;;;;;;;;5013694;28;20516;-71
2022/03/27 08:10:00;;;;;;;14.65;6.03;;;;;;;;;;5015567;28;20061;-71
2022/03/27 08:12:26;;;;;;;13.00;6.10;;;;;;;;;;5002668;28;20057;-69
2022/03/27 08:14:51;;;;;;;12.55;5.55;;;;;;;;;;5013361;28;20033;-71
2022/03/27 08:17:17;;;;;;;14.30;5.70;;;;;;;;;;4995759;28;20037;-70
2022/03/27 08:19:47;;;;;;;13.80;5.57;;;;;;;;;;5013213;28;20029;-69
2022/03/27 08:22:13;;;;;;;13.50;5.50;;;;;;;;;;4984644;28;20029;-70
2022/03/27 08:24:43;;;;;;;13.57;5.03;;;;;;;;;;5013482;28;20387;-71
2022/03/27 08:27:08;;;;;;;13.68;5.32;;;;;;;;;;5017556;28;20025;-75
2022/03/27 08:29:42;;;;;;;11.00;4.97;;;;;;;;;;5017710;28;20029;-76
2022/03/27 08:32:12;;;;;;;13.90;5.07;;;;;;;;;;4998384;28;20041;-76
2022/03/27 08:34:39;;;;;;;12.82;5.13;;;;;;;;;;5013479;28;20051;-76
2022/03/27 08:37:06;;;;;;;14.30;4.70;;;;;;;;;;5014573;28;20519;-76
2022/03/27 08:39:34;;;;;;;13.02;4.90;;;;;;;;;;5003452;28;20368;-74
2022/03/27 08:41:59;;;;;;;12.55;5.15;;;;;;;;;;5012395;28;20396;-75
2022/03/27 08:44:30;;;;;;;12.38;4.97;;;;;;;;;;5015211;28;20723;-77
2022/03/27 08:46:56;;;;;;;13.98;5.65;;;;;;;;;;5013460;28;20029;-76
2022/03/27 08:49:25;;;;;;;13.52;5.68;;;;;;;;;;5016536;28;20234;-74
2022/03/27 08:51:53;;;;;;;14.93;4.78;;;;;;;;;;5015994;28;20063;-73
2022/03/27 08:54:22;;;;;;;12.15;4.30;;;;;;;;;;5016899;28;20326;-74
2022/03/27 08:56:52;;;;;;;12.02;4.60;;;;;;;;;;5015277;28;20144;-74
2022/03/27 08:59:19;;;;;;;13.85;4.78;;;;;;;;;;5014797;28;20106;-74
2022/03/27 09:01:49;;;;;;;12.90;5.20;;;;;;;;;;5016136;28;20021;-74
2022/03/27 09:04:17;;;;;;;12.27;4.40;;;;;;;;;;5001533;28;20087;-75
2022/03/27 09:06:42;;;;;;;13.30;4.32;;;;;;;;;;5018436;28;20532;-75
2022/03/27 09:09:08;;;;;;;14.43;4.20;;;;;;;;;;5005361;28;20294;-74
2022/03/27 09:11:34;;;;;;;14.85;4.55;;;;;;;;;;5018215;28;20056;-74
2022/03/27 09:14:00;;;;;;;14.55;4.78;;;;;;;;;;5019298;28;20110;-75
2022/03/27 09:16:26;;;;;;;15.77;5.28;;;;;;;;;;5001537;28;20866;-74
2022/03/27 09:18:57;;;;;;;12.68;4.95;;;;;;;;;;5015311;28;20605;-73
2022/03/27 09:21:24;;;;;;;14.13;4.20;;;;;;;;;;5014128;28;20349;-73
2022/03/27 09:23:58;;;;;;;14.95;3.67;;;;;;;;;;5015107;28;20574;-74
2022/03/27 09:26:26;;;;;;;14.88;4.40;;;;;;;;;;5011248;28;20023;-69
2022/03/27 09:28:57;;;;;;;14.85;4.40;;;;;;;;;;5014234;28;20037;-69
2022/03/27 09:31:26;;;;;;;15.55;4.35;;;;;;;;;;4994425;28;20029;-69
2022/03/27 09:33:55;;;;;;;14.60;4.20;;;;;;;;;;4996168;28;20032;-68
2022/03/27 09:36:23;;;;;;;13.30;3.50;;;;;;;;;;5012729;28;20082;-68
2022/03/27 09:38:58;;;;;;;12.35;3.70;;;;;;;;;;5013796;28;20037;-68
2022/03/27 09:41:40;;;;;;;11.07;3.38;;;;;;;;;;5015975;28;20033;-68
2022/03/27 09:44:05;;;;;;;;;;;;;;;;;;5014250;28;20519;-69
2022/03/27 09:46:47;;;;;;;12.45;3.35;;;;;;;;;;5014329;28;20296;-66
2022/03/27 09:49:13;;;;;;;12.10;3.42;;;;;;;;;;5012036;28;20144;-66
2022/03/27 09:51:50;;;;;;;12.95;2.67;;;;;;;;;;4983955;28;20376;-69
2022/03/27 09:54:16;;;;;;;13.77;3.08;;;;;;;;;;4994988;28;20599;-67
2022/03/27 09:56:41;;;;;;;13.07;3.10;;;;;;;;;;5014507;28;20059;-67
2022/03/27 09:59:24;;;;;;;14.52;3.72;;;;;;;;;;5011947;28;20213;-67
2022/03/27 10:01:49;;;;;;;13.38;3.92;;;;;;;;;;5014048;28;20586;-67
2022/03/27 10:04:16;;;;;;;15.00;4.15;;;;;;;;;;4994651;28;20465;-67
2022/03/27 10:06:42;;;;;;;14.82;3.70;;;;;;;;;;4982219;28;20468;-68
2022/03/27 10:09:08;;;;;;;11.40;2.83;;;;;;;;;;5012178;28;20021;-67
2022/03/27 10:11:34;;;;;;;11.00;2.70;;;;;;;;;;5011734;28;20065;-67
2022/03/27 10:14:00;;;;;;;10.57;3.10;;;;;;;;;;5014815;28;20115;-66
2022/03/27 10:16:28;;;;;;;13.57;3.70;;;;;;;;;;5010922;28;20219;-66
2022/03/27 10:19:14;;;;;;;9.35;2.78;;;;;;;;;;5009700;28;20021;-67
2022/03/27 10:21:42;;;;;;;12.05;2.90;;;;;;;;;;4957183;28;20497;-67
2022/03/27 10:24:10;;;;;;;14.52;3.50;;;;;;;;;;5010335;28;20594;-67
2022/03/27 10:26:36;;;;;;;9.43;2.58;;;;;;;;;;5011104;28;20231;-67
2022/03/27 10:29:01;;;;;;;10.98;3.10;;;;;;;;;;5012314;28;20090;-68
2022/03/27 10:31:27;;;;;;;8.75;2.80;;;;;;;;;;5010580;28;20585;-67
2022/03/27 10:33:55;;;;;;;11.93;3.22;;;;;;;;;;5013422;28;20064;-71
2022/03/27 10:36:20;;;;;;;14.27;3.08;;;;;;;;;;5000877;28;22610;-72
2022/03/27 10:39:01;;;;;;;11.77;2.38;;;;;;;;;;5013030;28;20029;-75
2022/03/27 10:41:33;;;;;;;8.43;2.38;;;;;;;;;;5015101;28;20025;-74
2022/03/27 10:44:17;;;;;;;7.07;2.25;;;;;;;;;;4998891;28;20017;-74
2022/03/27 10:46:46;;;;;;;8.63;2.33;;;;;;;;;;5017720;28;20294;-74
2022/03/27 10:49:12;;;;;;;8.70;2.08;;;;;;;;;;4997337;28;20520;-74
2022/03/27 10:51:39;;;;;;;8.90;2.08;;;;;;;;;;5018530;28;20045;-75
2022/03/27 10:54:04;;;;;;;7.88;2.17;;;;;;;;;;4998503;28;20040;-75
2022/03/27 10:56:34;;;;;;;6.68;1.75;;;;;;;;;;5018222;28;20656;-74
2022/03/27 10:59:06;;;;;;;10.20;2.40;;;;;;;;;;5017979;28;20040;-75
2022/03/27 11:01:31;;;;;;;9.00;2.67;;;;;;;;;;5017403;28;20531;-73
2022/03/27 11:04:10;;;;;;;8.07;1.98;;;;;;;;;;4998248;28;20021;-72
2022/03/27 11:06:37;;;;;;;8.55;2.20;;;;;;;;;;4998112;28;20024;-74
2022/03/27 11:09:10;;;;;;;9.07;2.05;;;;;;;;;;5018011;28;20029;-73
2022/03/27 11:11:35;;;;;;;7.40;2.30;;;;;;;;;;5014570;28;20049;-75
2022/03/27 11:14:01;;;;;;;10.93;2.45;;;;;;;;;;5007660;28;20045;-73
2022/03/27 11:16:27;;;;;;;7.95;2.15;;;;;;;;;;5003754;28;21893;-73
2022/03/27 11:18:52;;;;;;;9.38;2.78;;;;;;;;;;5008394;28;20075;-74
2022/03/27 11:21:27;;;;;;;9.35;2.40;;;;;;;;;;5022851;28;20029;-73
2022/03/27 11:23:53;;;;;;;7.50;2.17;;;;;;;;;;5015567;28;20018;-75
2022/03/27 11:26:21;;;;;;;8.25;2.58;;;;;;;;;;5026734;28;20402;-76
2022/03/27 11:28:50;;;;;;;10.65;2.22;;;;;;;;;;5017128;28;20025;-76
2022/03/27 11:31:17;;;;;;;7.60;2.17;;;;;;;;;;5013278;28;20029;-77
2022/03/27 11:33:45;;;;;;;9.93;2.72;;;;;;;;;;5015506;28;20033;-75
2022/03/27 11:36:16;;;;;;;9.07;2.53;;;;;;;;;;4994978;28;20373;-73
2022/03/27 11:38:54;;;;;;;9.82;2.72;;;;;;;;;;5021716;28;20039;-75
2022/03/27 11:41:24;;;;;;;9.10;2.92;;;;;;;;;;5020328;28;20060;-79
2022/03/27 11:43:53;;;;;;;7.57;2.50;;;;;;;;;;5001256;28;20032;-80
2022/03/27 11:46:23;;;;;;;9.68;2.65;;;;;;;;;;5020368;28;20037;-74
2022/03/27 11:48:52;;;;;;;8.35;2.70;;;;;;;;;;5008520;28;20025;-78
2022/03/27 11:51:18;;;;;;;15.18;3.08;;;;;;;;;;5018654;28;20022;-78
2022/03/27 11:53:43;;;;;;;11.25;2.58;;;;;;;;;;5000217;28;20037;-73
2022/03/27 11:56:13;;;;;;;10.88;2.70;;;;;;;;;;5013833;28;20543;-74
2022/03/27 11:58:39;;;;;;;15.68;3.40;;;;;;;;;;5024823;28;20542;-73
2022/03/27 12:01:10;;;;;;;8.63;3.00;;;;;;;;;;5012294;28;20040;-73
2022/03/27 12:03:37;;;;;;;10.48;2.72;;;;;;;;;;5025125;28;20029;-73
2022/03/27 12:06:05;;;;;;;9.70;2.97;;;;;;;;;;5027258;28;20082;-73
2022/03/27 12:08:35;;;;;;;11.32;2.72;;;;;;;;;;5008873;28;20044;-74
2022/03/27 12:11:05;;;;;;;8.68;2.80;;;;;;;;;;5029202;28;20053;-74
2022/03/27 12:13:34;;;;;;;11.45;3.00;;;;;;;;;;5028461;28;21828;-74
2022/03/27 12:16:03;;;;;;;9.80;2.70;;;;;;;;;;5016848;28;20036;-73
2022/03/27 12:18:28;;;;;;;8.85;2.67;;;;;;;;;;5031016;28;20116;-74
2022/03/27 12:20:54;;;;;;;12.85;3.67;;;;;;;;;;5025244;28;20082;-74
2022/03/27 12:23:21;;;;;;;8.25;2.67;;;;;;;;;;5020724;28;20671;-74
2022/03/27 12:25:56;;;;;;;10.10;3.25;;;;;;;;;;5022827;28;20371;-73
2022/03/27 12:31:17;;;;;;;8.98;2.80;;;;;;;;;;5022183;28;20033;-75
2022/03/27 12:33:42;;;;;;;8.80;2.80;;;;;;;;;;5012947;28;20146;-74
2022/03/27 12:36:10;;;;;;;9.50;2.30;;;;;;;;;;5002145;28;20646;-74
2022/03/27 12:38:36;;;;;;;7.22;2.55;;;;;;;;;;5019977;28;20033;-74
2022/03/27 12:41:04;;;;;;;8.63;2.47;;;;;;;;;;5007105;28;20067;-75
2022/03/27 12:43:30;;;;;;;8.65;2.50;;;;;;;;;;5002227;28;20209;-76
2022/03/27 12:45:57;;;;;;;10.07;2.83;;;;;;;;;;5018165;28;20033;-74
2022/03/27 12:48:27;;;;;;;13.45;2.90;;;;;;;;;;5001415;28;20234;-74
2022/03/27 12:50:53;;;;;;;9.25;2.38;;;;;;;;;;5021880;28;20033;-74
2022/03/27 12:53:20;;;;;;;10.38;2.33;;;;;;;;;;5018845;28;20562;-73
2022/03/27 12:55:45;;;;;;;10.20;2.50;;;;;;;;;;5019876;28;20029;-68
2022/03/27 12:58:11;;;;;;;7.90;2.30;;;;;;;;;;5003156;28;20303;-69
2022/03/27 13:00:40;;;;;;;12.27;2.90;;;;;;;;;;5000439;28;20025;-67
2022/03/27 13:03:18;;;;;;;8.63;2.40;;;;;;;;;;5017731;28;20588;-68
2022/03/27 13:06:04;;;;;;;7.55;2.22;;;;;;;;;;5017438;28;20378;-67
2022/03/27 13:08:30;;;;;;;8.43;2.30;;;;;;;;;;5017885;28;20484;-67
2022/03/27 13:10:57;;;;;;;11.00;3.00;;;;;;;;;;5017333;28;20594;-65
2022/03/27 13:13:30;;;;;;;11.35;2.33;;;;;;;;;;4999556;28;20037;-67
2022/03/27 13:15:57;;;;;;;9.93;2.58;;;;;;;;;;5015801;28;20028;-67
2022/03/27 13:18:30;;;;;;;11.50;2.42;;;;;;;;;;5017421;28;20492;-68
2022/03/27 13:20:57;;;;;;;11.15;2.45;;;;;;;;;;5016864;28;20363;-67
2022/03/27 13:23:23;;;;;;;8.07;2.17;;;;;;;;;;5015679;28;20020;-69
2022/03/27 13:25:49;;;;;;;22.40;3.92;;;;;;;;;;5017007;28;20030;-66
2022/03/27 13:28:14;;;;;;;22.90;4.05;;;;;;;;;;4998698;28;20033;-68
2022/03/27 13:30:42;;;;;;;19.50;4.47;;;;;;;;;;5016130;28;20038;-68
2022/03/27 13:33:08;;;;;;;20.42;4.35;;;;;;;;;;5016450;28;20457;-67
2022/03/27 13:35:33;;;;;;;19.05;4.47;;;;;;;;;;5015496;28;20044;-68
2022/03/27 13:37:59;;;;;;;16.88;4.10;;;;;;;;;;4998297;28;20040;-68
2022/03/27 13:42:57;;;;;;;21.73;4.30;;;;;;;;;;5006666;28;20109;-67
2022/03/27 13:43:12;;;;;;;23.33;4.63;;;;;;;;;;5017703;28;20119;-67
2022/03/27 13:45:39;;;;;;;21.33;4.82;;;;;;;;;;5017295;28;20361;-67
2022/03/27 13:48:05;;;;;;;19.48;4.00;;;;;;;;;;5017093;28;20035;-67
2022/03/27 13:50:31;;;;;;;25.05;4.88;;;;;;;;;;4997879;28;20029;-68
2022/03/27 13:52:58;;;;;;;18.88;3.78;;;;;;;;;;5000147;28;20037;-67
2022/03/27 13:55:26;;;;;;;26.92;5.43;;;;;;;;;;5016665;28;20029;-67
2022/03/27 13:57:51;;;;;;;20.70;4.70;;;;;;;;;;4998280;28;20495;-67
2022/03/27 14:00:17;;;;;;;24.83;4.43;;;;;;;;;;4998818;28;20160;-68
2022/03/27 14:02:43;;;;;;;19.58;4.45;;;;;;;;;;5015785;28;20087;-66
2022/03/27 14:05:08;;;;;;;21.65;4.30;;;;;;;;;;5016271;28;20032;-68
2022/03/27 14:07:34;;;;;;;21.33;4.80;;;;;;;;;;5016925;28;20025;-68
2022/03/27 14:09:59;;;;;;;29.42;4.90;;;;;;;;;;5016151;28;20024;-68
2022/03/27 14:12:27;;;;;;;20.10;4.35;;;;;;;;;;5015965;28;20646;-70
2022/03/27 14:14:53;;;;;;;22.92;4.15;;;;;;;;;;5016923;28;20026;-69
2022/03/27 14:17:19;;;;;;;20.23;4.82;;;;;;;;;;5016577;28;20717;-69
2022/03/27 14:19:47;;;;;;;22.33;4.20;;;;;;;;;;5007732;28;20517;-69
2022/03/27 14:22:13;;;;;;;24.77;4.57;;;;;;;;;;5016625;28;20025;-69
2022/03/27 14:24:41;;;;;;;18.40;4.45;;;;;;;;;;5015742;28;20021;-68
2022/03/27 14:27:07;;;;;;;21.05;4.45;;;;;;;;;;5017042;28;20062;-71
2022/03/27 14:29:33;;;;;;;21.77;3.67;;;;;;;;;;5016877;28;20037;-69
2022/03/27 14:31:59;;;;;;;18.88;4.63;;;;;;;;;;5018900;28;20187;-69
2022/03/27 14:34:27;;;;;;;19.13;4.32;;;;;;;;;;5005978;28;20025;-69
2022/03/27 14:36:52;;;;;;;20.10;3.80;;;;;;;;;;5001831;28;20074;-68